Main page
METAR-TAF:

METAR-TAF

Airports :

Murcia, Spain

Base Aérea de Alcantarilla

latitude: 37-57N, longitude: 001-14W, elevation: 75 m

Current weather observation

The report was made 8 hours and 10 minutes ago, at 18:00 UTC
Wind 12 kt from the East
Temperature 24°C
Humidity 47%
Pressure 1016 hPa
Visibility 10 km or more
no clouds below 1500 m and no cumulonimbus

METAR: LERI 281800Z 09012KT CAVOK 24/12 Q1016 NOSIG

Time: 04:10 (02:10 UTC)

Forecast

The report was made 12 hours and 10 minutes ago, at 14:00 UTC
Forecast valid from 28 at 15 UTC to 28 at 24 UTC
Wind 9 kt from the North/Northeast
Visibility 10 km or more
no clouds below 1500 m and no cumulonimbus
Temporary
from 28 at 15 UTC to 28 at 18 UTC
Wind 19 kt from the East

TAF: LERI 281400Z 2815/2824 03009KT CAVOK TEMPO 2815/2818 09019KT

Weather observations and forecasts of more than 4000 airports (METAR and TAF reports).

The available stations are represented by yellow and red dots on the map.

Hover mouse over dot to see the name of the station.

Then click to see weather observations and forecasts.

To change the map : click on the green buttons with a black cross to zoom in, on the green button with a dash to zoom out, or on the green arrows for adjacent maps.


METAR-TAF: